Time,TemperatureF,DewpointF,PressureIn,WindDirection,WindDirectionDegrees,WindSpeedMPH,WindSpeedGustMPH,Humidity,HourlyPrecipIn,Conditions,Clouds,dailyrainin,SoftwareType,DateUTC
2013-01-24 00:02:00,14.1,11.2,30.12,SSW,211,0.0,0.0,88,0.00,,,0.00,Wunderground v.1.15,2013-01-24 05:02:00,
2013-01-24 00:03:00,14.2,11.3,30.12,SSW,211,0.0,0.0,88,0.00,,,0.00,Wunderground v.1.15,2013-01-24 05:03:00,
2013-01-24 00:04:00,14.1,11.2,30.12,SSW,211,0.0,0.0,88,0.00,,,0.00,Wunderground v.1.15,2013-01-24 05:04:00,
2013-01-24 00:06:00,14.1,11.2,30.12,SSW,211,0.0,0.0,88,0.00,,,0.00,Wunderground v.1.15,2013-01-24 05:06:00,
2013-01-24 00:12:00,14.2,11.3,30.12,SW,219,0.0,0.0,88,0.00,,,0.00,Wunderground v.1.15,2013-01-24 05:12:00,
2013-01-24 00:18:00,14.2,11.3,30.12,SW,219,0.0,0.0,88,0.00,,,0.00,Wunderground v.1.15,2013-01-24 05:18:00,
2013-01-24 00:23:00,14.2,11.3,30.12,SW,219,0.0,0.0,88,0.00,,,0.00,Wunderground v.1.15,2013-01-24 05:23:00,
2013-01-24 00:29:00,14.2,11.6,30.12,SW,219,0.0,0.0,89,0.00,,,0.00,Wunderground v.1.15,2013-01-24 05:29:00,
2013-01-24 00:35:00,14.2,11.6,30.11,SW,219,0.0,1.0,89,0.00,,,0.00,Wunderground v.1.15,2013-01-24 05:35:00,
2013-01-24 00:41:00,14.2,11.6,30.12,SW,219,0.0,0.0,89,0.00,,,0.00,Wunderground v.1.15,2013-01-24 05:41:00,
2013-01-24 00:47:00,14.1,11.5,30.12,SW,219,0.0,0.0,89,0.00,,,0.00,Wunderground v.1.15,2013-01-24 05:47:00,
2013-01-24 00:53:00,14.1,11.7,30.11,SW,219,0.0,0.0,90,0.00,,,0.00,Wunderground v.1.15,2013-01-24 05:53:00,
2013-01-24 00:59:00,14.1,11.7,30.11,SW,219,0.0,0.0,90,0.00,,,0.00,Wunderground v.1.15,2013-01-24 05:59:00,
2013-01-24 01:05:00,14.0,11.6,30.11,SW,219,0.0,0.0,90,0.00,,,0.00,Wunderground v.1.15,2013-01-24 06:05:00,
2013-01-24 01:11:00,14.0,11.6,30.11,SW,219,0.0,0.0,90,0.00,,,0.00,Wunderground v.1.15,2013-01-24 06:11:00,
2013-01-24 01:16:00,14.0,11.9,30.11,SW,219,0.0,1.0,91,0.00,,,0.00,Wunderground v.1.15,2013-01-24 06:16:00,
2013-01-24 01:22:00,14.0,11.9,30.11,SW,219,0.0,0.0,91,0.00,,,0.00,Wunderground v.1.15,2013-01-24 06:22:00,
2013-01-24 01:28:00,14.0,11.9,30.11,SW,219,0.0,0.0,91,0.00,,,0.00,Wunderground v.1.15,2013-01-24 06:28:00,
2013-01-24 01:34:00,13.9,11.8,30.11,SW,219,0.0,0.0,91,0.00,,,0.00,Wunderground v.1.15,2013-01-24 06:34:00,
2013-01-24 01:39:00,13.9,11.8,30.11,SW,219,0.0,0.0,91,0.00,,,0.00,Wunderground v.1.15,2013-01-24 06:39:00,
2013-01-24 01:45:00,13.9,11.8,30.12,SW,219,0.0,1.0,91,0.00,,,0.00,Wunderground v.1.15,2013-01-24 06:45:00,
2013-01-24 01:51:00,13.9,12.0,30.12,SW,234,0.0,2.0,92,0.00,,,0.00,Wunderground v.1.15,2013-01-24 06:51:00,
2013-01-24 01:57:00,13.9,11.8,30.12,SW,234,0.0,2.0,91,0.00,,,0.00,Wunderground v.1.15,2013-01-24 06:57:00,
2013-01-24 02:03:00,13.9,12.0,30.12,SW,234,0.0,0.0,92,0.00,,,0.00,Wunderground v.1.15,2013-01-24 07:03:00,
2013-01-24 02:08:00,13.9,12.0,30.12,SW,234,0.0,2.0,92,0.00,,,0.00,Wunderground v.1.15,2013-01-24 07:08:00,
2013-01-24 02:14:00,13.8,11.9,30.12,NW,304,1.0,1.0,92,0.00,,,0.00,Wunderground v.1.15,2013-01-24 07:14:00,
2013-01-24 02:21:00,13.8,11.9,30.12,SSW,193,0.0,0.0,92,0.00,,,0.00,Wunderground v.1.15,2013-01-24 07:21:00,
2013-01-24 02:26:00,13.8,11.9,30.13,West,269,0.0,2.0,92,0.00,,,0.00,Wunderground v.1.15,2013-01-24 07:26:00,
2013-01-24 02:31:00,13.8,11.9,30.13,West,269,1.0,1.0,92,0.00,,,0.00,Wunderground v.1.15,2013-01-24 07:31:00,
2013-01-24 02:37:00,13.8,11.9,30.13,West,281,0.0,2.0,92,0.00,,,0.00,Wunderground v.1.15,2013-01-24 07:37:00,
2013-01-24 02:43:00,13.9,12.0,30.14,West,281,0.0,3.0,92,0.00,,,0.00,Wunderground v.1.15,2013-01-24 07:43:00,
2013-01-24 02:49:00,13.9,12.0,30.14,NW,304,1.0,4.0,92,0.00,,,0.00,Wunderground v.1.15,2013-01-24 07:49:00,
2013-01-24 02:55:00,13.9,12.0,30.13,WSW,257,1.0,2.0,92,0.00,,,0.00,Wunderground v.1.15,2013-01-24 07:55:00,
2013-01-24 03:01:00,13.9,12.0,30.14,WNW,288,1.0,3.0,92,0.00,,,0.00,Wunderground v.1.15,2013-01-24 08:01:00,
2013-01-24 03:07:00,13.9,12.0,30.14,West,275,2.0,5.0,92,0.00,,,0.00,Wunderground v.1.15,2013-01-24 08:07:00,
2013-01-24 03:12:00,13.9,12.0,30.14,West,280,1.0,1.0,92,0.00,,,0.00,Wunderground v.1.15,2013-01-24 08:12:00,
2013-01-24 03:18:00,13.9,12.0,30.14,WNW,285,1.0,2.0,92,0.00,,,0.00,Wunderground v.1.15,2013-01-24 08:18:00,
2013-01-24 03:24:00,13.8,11.9,30.14,West,269,1.0,2.0,92,0.00,,,0.00,Wunderground v.1.15,2013-01-24 08:24:00,
2013-01-24 03:30:00,13.8,11.9,30.15,NNW,327,1.0,2.0,92,0.00,,,0.00,Wunderground v.1.15,2013-01-24 08:30:00,
2013-01-24 03:36:00,13.7,11.6,30.15,NNW,336,1.0,2.0,91,0.00,,,0.00,Wunderground v.1.15,2013-01-24 08:36:00,
2013-01-24 03:42:00,13.6,11.5,30.15,West,273,1.0,3.0,91,0.00,,,0.00,Wunderground v.1.15,2013-01-24 08:42:00,
2013-01-24 03:48:00,13.5,11.4,30.15,WNW,288,1.0,3.0,91,0.00,,,0.00,Wunderground v.1.15,2013-01-24 08:48:00,
2013-01-24 03:54:00,13.5,11.4,30.15,WNW,288,1.0,2.0,91,0.00,,,0.00,Wunderground v.1.15,2013-01-24 08:54:00,
2013-01-24 04:00:00,13.5,11.4,30.16,WNW,295,1.0,2.0,91,0.00,,,0.00,Wunderground v.1.15,2013-01-24 09:00:00,
2013-01-24 04:06:00,13.4,11.3,30.16,West,278,1.0,2.0,91,0.00,,,0.00,Wunderground v.1.15,2013-01-24 09:06:00,
2013-01-24 04:12:00,13.5,11.4,30.16,WNW,294,1.0,2.0,91,0.00,,,0.00,Wunderground v.1.15,2013-01-24 09:12:00,
2013-01-24 04:17:00,13.5,11.6,30.16,WNW,295,1.0,2.0,92,0.00,,,0.00,Wunderground v.1.15,2013-01-24 09:17:00,
2013-01-24 04:23:00,13.5,11.6,30.16,NW,311,1.0,4.0,92,0.00,,,0.00,Wunderground v.1.15,2013-01-24 09:23:00,
2013-01-24 04:29:00,13.4,11.5,30.17,West,275,2.0,4.0,92,0.00,,,0.00,Wunderground v.1.15,2013-01-24 09:29:00,
2013-01-24 04:33:00,13.4,11.5,30.17,WSW,250,2.0,3.0,92,0.00,,,0.00,Wunderground v.1.15,2013-01-24 09:33:00,
2013-01-24 04:39:00,13.3,11.4,30.17,WNW,295,2.0,3.0,92,0.00,,,0.00,Wunderground v.1.15,2013-01-24 09:39:00,
2013-01-24 04:45:00,13.2,11.1,30.18,WNW,296,2.0,2.0,91,0.00,,,0.00,Wunderground v.1.15,2013-01-24 09:45:00,
2013-01-24 04:51:00,13.2,11.1,30.18,WNW,297,1.0,3.0,91,0.00,,,0.00,Wunderground v.1.15,2013-01-24 09:51:00,
2013-01-24 04:57:00,13.2,11.1,30.19,WNW,296,1.0,3.0,91,0.00,,,0.00,Wunderground v.1.15,2013-01-24 09:57:00,
2013-01-24 05:03:00,13.2,11.1,30.19,NW,311,1.0,1.0,91,0.00,,,0.00,Wunderground v.1.15,2013-01-24 10:03:00,
2013-01-24 05:09:00,13.2,11.1,30.19,WNW,303,1.0,1.0,91,0.00,,,0.00,Wunderground v.1.15,2013-01-24 10:09:00,
2013-01-24 05:15:00,13.2,11.1,30.20,NW,305,1.0,2.0,91,0.00,,,0.00,Wunderground v.1.15,2013-01-24 10:15:00,
2013-01-24 05:21:00,13.2,11.1,30.21,NW,319,1.0,2.0,91,0.00,,,0.00,Wunderground v.1.15,2013-01-24 10:21:00,
2013-01-24 05:27:00,13.1,11.0,30.21,NW,305,1.0,3.0,91,0.00,,,0.00,Wunderground v.1.15,2013-01-24 10:27:00,
2013-01-24 05:33:00,13.1,11.0,30.22,NW,326,1.0,2.0,91,0.00,,,0.00,Wunderground v.1.15,2013-01-24 10:33:00,
2013-01-24 05:39:00,12.8,10.7,30.22,NNW,327,2.0,3.0,91,0.00,,,0.00,Wunderground v.1.15,2013-01-24 10:39:00,
2013-01-24 05:45:00,12.6,10.5,30.23,NNW,336,2.0,2.0,91,0.00,,,0.00,Wunderground v.1.15,2013-01-24 10:45:00,
2013-01-24 05:51:00,12.5,10.4,30.23,NW,312,2.0,3.0,91,0.00,,,0.00,Wunderground v.1.15,2013-01-24 10:51:00,
2013-01-24 05:56:00,12.4,10.0,30.24,NNW,328,2.0,6.0,90,0.00,,,0.00,Wunderground v.1.15,2013-01-24 10:56:00,
2013-01-24 06:02:00,12.4,10.0,30.25,NW,323,2.0,5.0,90,0.00,,,0.00,Wunderground v.1.15,2013-01-24 11:02:00,
2013-01-24 06:08:00,12.3,9.9,30.25,WNW,293,2.0,5.0,90,0.00,,,0.00,Wunderground v.1.15,2013-01-24 11:08:00,
2013-01-24 06:14:00,12.3,10.2,30.26,North,355,1.0,3.0,91,0.00,,,0.00,Wunderground v.1.15,2013-01-24 11:14:00,
2013-01-24 06:20:00,12.3,10.2,30.26,West,281,2.0,2.0,91,0.00,,,0.00,Wunderground v.1.15,2013-01-24 11:20:00,
2013-01-24 06:26:00,12.3,10.2,30.27,WNW,290,1.0,3.0,91,0.00,,,0.00,Wunderground v.1.15,2013-01-24 11:26:00,
2013-01-24 06:32:00,12.3,10.2,30.27,North,349,1.0,1.0,91,0.00,,,0.00,Wunderground v.1.15,2013-01-24 11:32:00,
2013-01-24 06:38:00,12.3,10.2,30.28,NNW,330,1.0,2.0,91,0.00,,,0.00,Wunderground v.1.15,2013-01-24 11:38:00,
2013-01-24 06:43:00,12.3,10.2,30.28,NNW,329,1.0,1.0,91,0.00,,,0.00,Wunderground v.1.15,2013-01-24 11:43:00,
2013-01-24 06:48:00,12.3,10.2,30.28,WNW,286,0.0,2.0,91,0.00,,,0.00,Wunderground v.1.15,2013-01-24 11:48:00,
2013-01-24 06:54:00,12.4,10.3,30.29,NW,313,1.0,3.0,91,0.00,,,0.00,Wunderground v.1.15,2013-01-24 11:54:00,
2013-01-24 07:00:00,12.3,10.2,30.30,NNW,327,1.0,1.0,91,0.00,,,0.00,Wunderground v.1.15,2013-01-24 12:00:00,
2013-01-24 07:06:00,12.3,10.2,30.30,NW,315,1.0,1.0,91,0.00,,,0.00,Wunderground v.1.15,2013-01-24 12:06:00,
2013-01-24 07:12:00,12.2,10.1,30.31,NW,313,1.0,2.0,91,0.00,,,0.00,Wunderground v.1.15,2013-01-24 12:12:00,
2013-01-24 07:18:00,12.2,10.1,30.31,NNW,336,2.0,6.0,91,0.00,,,0.00,Wunderground v.1.15,2013-01-24 12:18:00,
2013-01-24 07:24:00,12.1,10.0,30.32,WNW,292,1.0,2.0,91,0.00,,,0.00,Wunderground v.1.15,2013-01-24 12:24:00,
2013-01-24 07:30:00,12.1,10.0,30.32,West,271,1.0,2.0,91,0.00,,,0.00,Wunderground v.1.15,2013-01-24 12:30:00,
2013-01-24 07:35:00,12.1,10.0,30.33,WNW,289,0.0,1.0,91,0.00,,,0.00,Wunderground v.1.15,2013-01-24 12:35:00,
2013-01-24 07:41:00,12.1,10.0,30.33,NW,304,0.0,1.0,91,0.00,,,0.00,Wunderground v.1.15,2013-01-24 12:41:00,
2013-01-24 07:47:00,12.1,10.0,30.34,NW,304,0.0,1.0,91,0.00,,,0.00,Wunderground v.1.15,2013-01-24 12:47:00,
2013-01-24 07:53:00,12.0,9.9,30.34,WNW,290,0.0,3.0,91,0.00,,,0.00,Wunderground v.1.15,2013-01-24 12:53:00,
2013-01-24 07:59:00,12.0,9.9,30.35,NW,323,1.0,3.0,91,0.00,,,0.00,Wunderground v.1.15,2013-01-24 12:59:00,
2013-01-24 08:05:00,11.9,9.8,30.35,North,350,0.0,1.0,91,0.00,,,0.00,Wunderground v.1.15,2013-01-24 13:05:00,
2013-01-24 08:11:00,11.9,9.8,30.36,NW,325,1.0,1.0,91,0.00,,,0.00,Wunderground v.1.15,2013-01-24 13:11:00,
2013-01-24 08:16:00,11.9,9.8,30.36,NW,324,1.0,1.0,91,0.00,,,0.00,Wunderground v.1.15,2013-01-24 13:16:00,
2013-01-24 08:22:00,11.9,9.8,30.37,WSW,257,0.0,3.0,91,0.00,,,0.00,Wunderground v.1.15,2013-01-24 13:22:00,
2013-01-24 08:28:00,11.8,9.7,30.37,NW,319,1.0,3.0,91,0.00,,,0.00,Wunderground v.1.15,2013-01-24 13:28:00,
2013-01-24 08:34:00,11.8,9.7,30.38,NW,325,1.0,1.0,91,0.00,,,0.00,Wunderground v.1.15,2013-01-24 13:34:00,
2013-01-24 08:40:00,11.8,9.7,30.38,NW,325,0.0,1.0,91,0.00,,,0.00,Wunderground v.1.15,2013-01-24 13:40:00,
2013-01-24 08:46:00,11.8,9.7,30.38,NW,318,0.0,2.0,91,0.00,,,0.00,Wunderground v.1.15,2013-01-24 13:46:00,
2013-01-24 08:52:00,11.9,9.8,30.39,NNW,333,1.0,2.0,91,0.00,,,0.00,Wunderground v.1.15,2013-01-24 13:52:00,
2013-01-24 08:58:00,11.8,9.7,30.40,WNW,284,1.0,2.0,91,0.00,,,0.00,Wunderground v.1.15,2013-01-24 13:58:00,
2013-01-24 09:03:00,11.8,9.7,30.40,NW,325,1.0,1.0,91,0.00,,,0.00,Wunderground v.1.15,2013-01-24 14:03:00,
2013-01-24 09:09:00,11.8,9.4,30.41,NW,321,1.0,4.0,90,0.00,,,0.00,Wunderground v.1.15,2013-01-24 14:09:00,
2013-01-24 09:15:00,11.7,9.3,30.41,NNW,331,1.0,3.0,90,0.00,,,0.00,Wunderground v.1.15,2013-01-24 14:15:00,
2013-01-24 09:21:00,11.7,9.3,30.42,NNW,328,1.0,3.0,90,0.00,,,0.00,Wunderground v.1.15,2013-01-24 14:21:00,
2013-01-24 09:27:00,11.7,9.3,30.42,NNW,336,2.0,4.0,90,0.00,,,0.00,Wunderground v.1.15,2013-01-24 14:27:00,
2013-01-24 09:33:00,11.7,9.3,30.43,NW,326,1.0,1.0,90,0.00,,,0.00,Wunderground v.1.15,2013-01-24 14:33:00,
2013-01-24 09:39:00,11.9,9.8,30.43,NW,309,1.0,2.0,91,0.00,,,0.00,Wunderground v.1.15,2013-01-24 14:39:00,
2013-01-24 09:45:00,11.9,9.5,30.44,NW,321,1.0,1.0,90,0.00,,,0.00,Wunderground v.1.15,2013-01-24 14:45:00,
2013-01-24 09:50:00,11.9,9.5,30.44,NNW,333,1.0,3.0,90,0.00,,,0.00,Wunderground v.1.15,2013-01-24 14:50:00,
2013-01-24 09:56:00,12.0,9.6,30.44,NNW,341,1.0,3.0,90,0.00,,,0.00,Wunderground v.1.15,2013-01-24 14:56:00,
2013-01-24 10:02:00,12.0,9.6,30.45,West,265,1.0,2.0,90,0.00,,,0.00,Wunderground v.1.15,2013-01-24 15:02:00,
2013-01-24 10:08:00,12.4,10.0,30.45,NNW,331,1.0,2.0,90,0.00,,,0.00,Wunderground v.1.15,2013-01-24 15:08:00,
2013-01-24 10:14:00,12.7,10.6,30.45,NW,326,0.0,1.0,91,0.00,,,0.00,Wunderground v.1.15,2013-01-24 15:14:00,
2013-01-24 10:20:00,12.9,10.5,30.46,NW,326,0.0,1.0,90,0.00,,,0.00,Wunderground v.1.15,2013-01-24 15:20:00,
2013-01-24 10:26:00,12.9,10.5,30.46,NW,325,0.0,3.0,90,0.00,,,0.00,Wunderground v.1.15,2013-01-24 15:26:00,
2013-01-24 10:32:00,13.1,10.7,30.46,NW,313,1.0,2.0,90,0.00,,,0.00,Wunderground v.1.15,2013-01-24 15:32:00,
2013-01-24 10:37:00,13.2,10.6,30.47,NW,305,1.0,7.0,89,0.00,,,0.00,Wunderground v.1.15,2013-01-24 15:37:00,
2013-01-24 10:43:00,13.3,10.7,30.47,WNW,285,2.0,3.0,89,0.00,,,0.00,Wunderground v.1.15,2013-01-24 15:43:00,
2013-01-24 10:49:00,13.5,10.6,30.48,NW,322,2.0,4.0,88,0.00,,,0.00,Wunderground v.1.15,2013-01-24 15:49:00,
2013-01-24 10:55:00,13.9,10.7,30.48,NNW,346,1.0,3.0,87,0.00,,,0.00,Wunderground v.1.15,2013-01-24 15:55:00,
2013-01-24 11:01:00,13.9,10.2,30.49,WNW,287,2.0,2.0,85,0.00,,,0.00,Wunderground v.1.15,2013-01-24 16:01:00,
2013-01-24 11:07:00,13.9,10.2,30.49,NW,317,2.0,4.0,85,0.00,,,0.00,Wunderground v.1.15,2013-01-24 16:07:00,
2013-01-24 11:13:00,13.8,9.6,30.49,NNW,333,2.0,2.0,83,0.00,,,0.00,Wunderground v.1.15,2013-01-24 16:13:00,
2013-01-24 11:18:00,14.0,9.8,30.50,NNW,329,2.0,3.0,83,0.00,,,0.00,Wunderground v.1.15,2013-01-24 16:18:00,
2013-01-24 11:24:00,14.0,9.8,30.50,West,275,3.0,4.0,83,0.00,,,0.00,Wunderground v.1.15,2013-01-24 16:24:00,
2013-01-24 11:30:00,14.1,9.3,30.50,NW,321,3.0,3.0,81,0.00,,,0.00,Wunderground v.1.15,2013-01-24 16:30:00,
2013-01-24 11:36:00,14.8,9.5,30.50,NW,314,3.0,4.0,79,0.00,,,0.00,Wunderground v.1.15,2013-01-24 16:36:00,
2013-01-24 11:42:00,15.4,10.3,30.50,NNW,334,2.0,2.0,80,0.00,,,0.00,Wunderground v.1.15,2013-01-24 16:42:00,
2013-01-24 11:48:00,16.0,10.1,30.50,North,349,2.0,4.0,77,0.00,,,0.00,Wunderground v.1.15,2013-01-24 16:48:00,
2013-01-24 11:54:00,15.9,9.4,30.51,NW,326,2.0,5.0,75,0.00,,,0.00,Wunderground v.1.15,2013-01-24 16:54:00,
2013-01-24 12:00:00,15.6,8.8,30.51,North,355,3.0,5.0,74,0.00,,,0.00,Wunderground v.1.15,2013-01-24 17:00:00,
2013-01-24 12:05:00,15.3,8.5,30.51,NNW,327,3.0,5.0,74,0.00,,,0.00,Wunderground v.1.15,2013-01-24 17:05:00,
2013-01-24 12:11:00,15.4,8.9,30.50,NNW,334,3.0,3.0,75,0.00,,,0.00,Wunderground v.1.15,2013-01-24 17:11:00,
2013-01-24 12:17:00,15.5,8.4,30.51,NNW,344,3.0,6.0,73,0.00,,,0.00,Wunderground v.1.15,2013-01-24 17:17:00,
2013-01-24 12:23:00,15.5,7.8,30.51,WNW,292,4.0,4.0,71,0.00,,,0.00,Wunderground v.1.15,2013-01-24 17:23:00,
2013-01-24 12:29:00,15.7,7.3,30.51,NW,323,3.0,6.0,69,0.00,,,0.00,Wunderground v.1.15,2013-01-24 17:29:00,
2013-01-24 12:35:00,15.9,8.2,30.51,NW,318,4.0,6.0,71,0.00,,,0.00,Wunderground v.1.15,2013-01-24 17:35:00,
2013-01-24 12:41:00,16.1,8.0,30.51,NW,321,4.0,4.0,70,0.00,,,0.00,Wunderground v.1.15,2013-01-24 17:41:00,
2013-01-24 12:47:00,16.0,7.0,30.51,WNW,293,4.0,5.0,67,0.00,,,0.00,Wunderground v.1.15,2013-01-24 17:47:00,
2013-01-24 12:52:00,15.9,6.9,30.51,WNW,286,4.0,4.0,67,0.00,,,0.00,Wunderground v.1.15,2013-01-24 17:52:00,
2013-01-24 12:58:00,16.3,7.3,30.50,WNW,303,3.0,5.0,67,0.00,,,0.00,Wunderground v.1.15,2013-01-24 17:58:00,
2013-01-24 13:04:00,16.5,6.8,30.50,NNW,331,3.0,5.0,65,0.00,,,0.00,Wunderground v.1.15,2013-01-24 18:04:00,
2013-01-24 13:10:00,16.2,5.5,30.50,North,355,4.0,5.0,62,0.00,,,0.00,Wunderground v.1.15,2013-01-24 18:10:00,
2013-01-24 13:16:00,16.9,6.1,30.50,NNW,332,5.0,9.0,62,0.00,,,0.00,Wunderground v.1.15,2013-01-24 18:16:00,
2013-01-24 13:22:00,17.3,6.1,30.50,WSW,249,4.0,5.0,61,0.00,,,0.00,Wunderground v.1.15,2013-01-24 18:22:00,
2013-01-24 13:28:00,17.2,6.0,30.50,NNW,339,3.0,5.0,61,0.00,,,0.00,Wunderground v.1.15,2013-01-24 18:28:00,
2013-01-24 13:34:00,17.1,6.3,30.49,NW,309,3.0,4.0,62,0.00,,,0.00,Wunderground v.1.15,2013-01-24 18:34:00,
2013-01-24 13:39:00,17.4,6.2,30.49,NW,315,3.0,6.0,61,0.00,,,0.00,Wunderground v.1.15,2013-01-24 18:39:00,
2013-01-24 13:45:00,17.3,6.1,30.50,West,273,4.0,8.0,61,0.00,,,0.00,Wunderground v.1.15,2013-01-24 18:45:00,
2013-01-24 13:51:00,17.9,6.0,30.50,WNW,288,4.0,5.0,59,0.00,,,0.00,Wunderground v.1.15,2013-01-24 18:51:00,
2013-01-24 13:57:00,18.1,5.4,30.50,NNW,335,5.0,7.0,57,0.00,,,0.00,Wunderground v.1.15,2013-01-24 18:57:00,
2013-01-24 14:03:00,18.3,6.0,30.50,NW,324,5.0,9.0,58,0.00,,,0.00,Wunderground v.1.15,2013-01-24 19:03:00,
2013-01-24 14:09:00,18.7,4.8,30.49,North,360,4.0,9.0,54,0.00,,,0.00,Wunderground v.1.15,2013-01-24 19:09:00,
2013-01-24 14:15:00,18.9,5.0,30.49,NW,313,4.0,6.0,54,0.00,,,0.00,Wunderground v.1.15,2013-01-24 19:15:00,
2013-01-24 14:21:00,19.3,5.3,30.49,NW,323,4.0,7.0,54,0.00,,,0.00,Wunderground v.1.15,2013-01-24 19:21:00,
2013-01-24 14:26:00,19.4,6.2,30.49,NW,319,4.0,7.0,56,0.00,,,0.00,Wunderground v.1.15,2013-01-24 19:26:00,
2013-01-24 14:32:00,19.8,5.8,30.49,NW,322,4.0,7.0,54,0.00,,,0.00,Wunderground v.1.15,2013-01-24 19:32:00,
2013-01-24 14:38:00,19.6,5.6,30.50,NNW,337,5.0,9.0,54,0.00,,,0.00,Wunderground v.1.15,2013-01-24 19:38:00,
2013-01-24 14:44:00,19.0,5.5,30.50,NNW,333,5.0,6.0,55,0.00,,,0.00,Wunderground v.1.15,2013-01-24 19:44:00,
2013-01-24 14:50:00,18.6,4.7,30.50,NW,309,5.0,5.0,54,0.00,,,0.00,Wunderground v.1.15,2013-01-24 19:50:00,
2013-01-24 14:56:00,18.4,4.5,30.51,WNW,286,4.0,7.0,54,0.00,,,0.00,Wunderground v.1.15,2013-01-24 19:56:00,
2013-01-24 15:02:00,18.2,4.7,30.51,NW,311,4.0,4.0,55,0.00,,,0.00,Wunderground v.1.15,2013-01-24 20:02:00,
2013-01-24 15:07:00,18.8,5.7,30.51,WNW,300,4.0,4.0,56,0.00,,,0.00,Wunderground v.1.15,2013-01-24 20:07:00,
2013-01-24 15:13:00,19.2,4.8,30.51,NNW,335,3.0,7.0,53,0.00,,,0.00,Wunderground v.1.15,2013-01-24 20:13:00,
2013-01-24 15:19:00,18.8,4.9,30.51,WNW,302,4.0,7.0,54,0.00,,,0.00,Wunderground v.1.15,2013-01-24 20:19:00,
2013-01-24 15:25:00,18.2,5.5,30.51,WNW,296,4.0,8.0,57,0.00,,,0.00,Wunderground v.1.15,2013-01-24 20:25:00,
2013-01-24 15:31:00,18.2,6.3,30.51,NW,304,4.0,4.0,59,0.00,,,0.00,Wunderground v.1.15,2013-01-24 20:31:00,
2013-01-24 15:37:00,17.7,6.2,30.52,NNW,327,3.0,4.0,60,0.00,,,0.00,Wunderground v.1.15,2013-01-24 20:37:00,
2013-01-24 15:43:00,17.6,4.9,30.53,NW,316,3.0,7.0,57,0.00,,,0.00,Wunderground v.1.15,2013-01-24 20:43:00,
2013-01-24 15:48:00,17.8,4.7,30.53,NNW,343,3.0,7.0,56,0.00,,,0.00,Wunderground v.1.15,2013-01-24 20:48:00,
2013-01-24 15:54:00,17.9,5.6,30.52,NNW,327,3.0,3.0,58,0.00,,,0.00,Wunderground v.1.15,2013-01-24 20:54:00,
2013-01-24 16:00:00,17.9,6.0,30.52,NW,311,1.0,2.0,59,0.00,,,0.00,Wunderground v.1.15,2013-01-24 21:00:00,
2013-01-24 16:06:00,17.8,6.2,30.53,NNW,345,2.0,3.0,60,0.00,,,0.00,Wunderground v.1.15,2013-01-24 21:06:00,
2013-01-24 16:12:00,17.9,6.7,30.53,West,264,1.0,4.0,61,0.00,,,0.00,Wunderground v.1.15,2013-01-24 21:12:00,
2013-01-24 16:18:00,17.8,6.2,30.53,NW,312,1.0,4.0,60,0.00,,,0.00,Wunderground v.1.15,2013-01-24 21:18:00,
2013-01-24 16:24:00,17.6,5.7,30.53,WNW,302,3.0,4.0,59,0.00,,,0.00,Wunderground v.1.15,2013-01-24 21:24:00,
2013-01-24 16:30:00,17.5,4.5,30.54,NNW,343,3.0,4.0,56,0.00,,,0.00,Wunderground v.1.15,2013-01-24 21:30:00,
2013-01-24 16:35:00,17.3,5.0,30.54,West,270,2.0,5.0,58,0.00,,,0.00,Wunderground v.1.15,2013-01-24 21:35:00,
2013-01-24 16:41:00,17.1,5.2,30.54,North,355,3.0,3.0,59,0.00,,,0.00,Wunderground v.1.15,2013-01-24 21:41:00,
2013-01-24 16:47:00,17.0,5.5,30.55,NNW,338,3.0,5.0,60,0.00,,,0.00,Wunderground v.1.15,2013-01-24 21:47:00,
2013-01-24 16:53:00,17.0,6.6,30.54,NNW,328,2.0,3.0,63,0.00,,,0.00,Wunderground v.1.15,2013-01-24 21:53:00,
2013-01-24 16:59:00,17.0,6.9,30.54,NW,309,2.0,3.0,64,0.00,,,0.00,Wunderground v.1.15,2013-01-24 21:59:00,
2013-01-24 17:05:00,16.9,6.5,30.54,WNW,300,2.0,4.0,63,0.00,,,0.00,Wunderground v.1.15,2013-01-24 22:05:00,
2013-01-24 17:11:00,16.8,6.7,30.55,NW,323,2.0,2.0,64,0.00,,,0.00,Wunderground v.1.15,2013-01-24 22:11:00,
2013-01-24 17:16:00,16.6,6.5,30.55,NW,313,1.0,4.0,64,0.00,,,0.00,Wunderground v.1.15,2013-01-24 22:16:00,
2013-01-24 17:22:00,16.4,6.7,30.55,NW,319,1.0,1.0,65,0.00,,,0.00,Wunderground v.1.15,2013-01-24 22:22:00,
2013-01-24 17:28:00,16.2,6.8,30.55,NW,317,1.0,3.0,66,0.00,,,0.00,Wunderground v.1.15,2013-01-24 22:28:00,
2013-01-24 17:34:00,16.2,7.2,30.56,NW,322,1.0,2.0,67,0.00,,,0.00,Wunderground v.1.15,2013-01-24 22:34:00,
2013-01-24 17:40:00,16.2,7.8,30.56,North,355,1.0,2.0,69,0.00,,,0.00,Wunderground v.1.15,2013-01-24 22:40:00,
2013-01-24 17:45:00,16.2,8.1,30.56,West,273,2.0,4.0,70,0.00,,,0.00,Wunderground v.1.15,2013-01-24 22:45:00,
2013-01-24 17:51:00,16.1,8.7,30.56,NW,323,2.0,4.0,72,0.00,,,0.00,Wunderground v.1.15,2013-01-24 22:51:00,
2013-01-24 17:56:00,15.9,8.8,30.56,NNW,348,2.0,4.0,73,0.00,,,0.00,Wunderground v.1.15,2013-01-24 22:56:00,
2013-01-24 18:02:00,15.8,9.3,30.57,NNW,340,2.0,2.0,75,0.00,,,0.00,Wunderground v.1.15,2013-01-24 23:02:00,
2013-01-24 18:08:00,15.5,10.1,30.57,WNW,288,2.0,4.0,79,0.00,,,0.00,Wunderground v.1.15,2013-01-24 23:08:00,
2013-01-24 18:14:00,15.3,10.5,30.57,WNW,290,1.0,4.0,81,0.00,,,0.00,Wunderground v.1.15,2013-01-24 23:14:00,
2013-01-24 18:20:00,15.1,10.6,30.57,WNW,290,1.0,1.0,82,0.00,,,0.00,Wunderground v.1.15,2013-01-24 23:20:00,
2013-01-24 18:26:00,14.8,10.3,30.57,WNW,290,0.0,1.0,82,0.00,,,0.00,Wunderground v.1.15,2013-01-24 23:26:00,
2013-01-24 18:32:00,14.6,10.1,30.57,WNW,290,0.0,0.0,82,0.00,,,0.00,Wunderground v.1.15,2013-01-24 23:32:00,
2013-01-24 18:37:00,14.3,9.5,30.57,WNW,290,0.0,0.0,81,0.00,,,0.00,Wunderground v.1.15,2013-01-24 23:37:00,
2013-01-24 18:43:00,14.0,9.2,30.58,WNW,290,0.0,0.0,81,0.00,,,0.00,Wunderground v.1.15,2013-01-24 23:43:00,
2013-01-24 18:49:00,13.8,9.0,30.58,WNW,290,0.0,0.0,81,0.00,,,0.00,Wunderground v.1.15,2013-01-24 23:49:00,
2013-01-24 18:55:00,13.6,8.9,30.58,WNW,290,0.0,0.0,81,0.00,,,0.00,Wunderground v.1.15,2013-01-24 23:55:00,
2013-01-24 19:01:00,13.4,8.9,30.58,WNW,290,0.0,0.0,82,0.00,,,0.00,Wunderground v.1.15,2013-01-25 00:01:00,
2013-01-24 19:06:00,13.2,8.7,30.58,WNW,290,0.0,0.0,82,0.00,,,0.00,Wunderground v.1.15,2013-01-25 00:06:00,
2013-01-24 19:12:00,13.0,8.3,30.58,WNW,290,0.0,0.0,81,0.00,,,0.00,Wunderground v.1.15,2013-01-25 00:12:00,
2013-01-24 19:18:00,12.7,8.2,30.58,WNW,290,0.0,0.0,82,0.00,,,0.00,Wunderground v.1.15,2013-01-25 00:18:00,
2013-01-24 19:24:00,12.5,8.0,30.58,WNW,290,0.0,0.0,82,0.00,,,0.00,Wunderground v.1.15,2013-01-25 00:24:00,
2013-01-24 19:30:00,12.3,7.6,30.58,WNW,290,0.0,0.0,81,0.00,,,0.00,Wunderground v.1.15,2013-01-25 00:30:00,
2013-01-24 19:36:00,12.3,7.6,30.58,WNW,290,0.0,0.0,81,0.00,,,0.00,Wunderground v.1.15,2013-01-25 00:36:00,
2013-01-24 19:41:00,12.2,7.2,30.58,WNW,290,0.0,0.0,80,0.00,,,0.00,Wunderground v.1.15,2013-01-25 00:41:00,
2013-01-24 19:47:00,12.2,6.9,30.59,WNW,290,0.0,0.0,79,0.00,,,0.00,Wunderground v.1.15,2013-01-25 00:47:00,
2013-01-24 19:52:00,12.1,6.8,30.59,WNW,290,0.0,0.0,79,0.00,,,0.00,Wunderground v.1.15,2013-01-25 00:52:00,
2013-01-24 19:58:00,12.0,6.5,30.59,WNW,290,0.0,0.0,78,0.00,,,0.00,Wunderground v.1.15,2013-01-25 00:58:00,
2013-01-24 20:04:00,12.0,6.2,30.59,WNW,290,0.0,0.0,77,0.00,,,0.00,Wunderground v.1.15,2013-01-25 01:04:00,
2013-01-24 20:10:00,12.0,5.9,30.58,WNW,290,0.0,0.0,76,0.00,,,0.00,Wunderground v.1.15,2013-01-25 01:10:00,
2013-01-24 20:16:00,12.0,5.9,30.58,WNW,290,0.0,0.0,76,0.00,,,0.00,Wunderground v.1.15,2013-01-25 01:16:00,
2013-01-24 20:22:00,11.9,5.5,30.58,WNW,290,0.0,0.0,75,0.00,,,0.00,Wunderground v.1.15,2013-01-25 01:22:00,
2013-01-24 20:27:00,11.9,5.5,30.58,WNW,290,0.0,0.0,75,0.00,,,0.00,Wunderground v.1.15,2013-01-25 01:27:00,
2013-01-24 20:33:00,11.9,5.2,30.58,WNW,290,0.0,1.0,74,0.00,,,0.00,Wunderground v.1.15,2013-01-25 01:33:00,
2013-01-24 20:39:00,11.9,5.2,30.58,WNW,290,0.0,1.0,74,0.00,,,0.00,Wunderground v.1.15,2013-01-25 01:39:00,
2013-01-24 20:45:00,12.0,5.0,30.58,WNW,290,0.0,0.0,73,0.00,,,0.00,Wunderground v.1.15,2013-01-25 01:45:00,
2013-01-24 20:51:00,11.9,4.6,30.58,WNW,290,0.0,0.0,72,0.00,,,0.00,Wunderground v.1.15,2013-01-25 01:51:00,
2013-01-24 20:57:00,12.0,4.4,30.58,WNW,290,0.0,0.0,71,0.00,,,0.00,Wunderground v.1.15,2013-01-25 01:57:00,
2013-01-24 21:02:00,12.0,4.4,30.58,WNW,290,0.0,0.0,71,0.00,,,0.00,Wunderground v.1.15,2013-01-25 02:02:00,
2013-01-24 21:08:00,12.0,3.8,30.58,WNW,289,0.0,3.0,69,0.00,,,0.00,Wunderground v.1.15,2013-01-25 02:08:00,
2013-01-24 21:13:00,11.9,3.4,30.58,WNW,289,0.0,0.0,68,0.00,,,0.00,Wunderground v.1.15,2013-01-25 02:13:00,
2013-01-24 21:19:00,11.8,3.3,30.58,WNW,289,0.0,0.0,68,0.00,,,0.00,Wunderground v.1.15,2013-01-25 02:19:00,
2013-01-24 21:25:00,11.7,3.2,30.57,WNW,289,0.0,0.0,68,0.00,,,0.00,Wunderground v.1.15,2013-01-25 02:25:00,
2013-01-24 21:31:00,11.6,2.8,30.57,WNW,289,0.0,1.0,67,0.00,,,0.00,Wunderground v.1.15,2013-01-25 02:31:00,
2013-01-24 21:37:00,11.6,2.8,30.57,WNW,289,0.0,1.0,67,0.00,,,0.00,Wunderground v.1.15,2013-01-25 02:37:00,
2013-01-24 21:43:00,11.6,2.4,30.57,WNW,289,0.0,0.0,66,0.00,,,0.00,Wunderground v.1.15,2013-01-25 02:43:00,
2013-01-24 21:49:00,11.5,2.3,30.57,WNW,289,0.0,0.0,66,0.00,,,0.00,Wunderground v.1.15,2013-01-25 02:49:00,
2013-01-24 21:54:00,11.5,2.0,30.57,WNW,289,0.0,0.0,65,0.00,,,0.00,Wunderground v.1.15,2013-01-25 02:54:00,
2013-01-24 22:00:00,11.4,1.9,30.56,WNW,289,0.0,0.0,65,0.00,,,0.00,Wunderground v.1.15,2013-01-25 03:00:00,
2013-01-24 22:06:00,11.3,1.8,30.56,WNW,289,0.0,0.0,65,0.00,,,0.00,Wunderground v.1.15,2013-01-25 03:06:00,
2013-01-24 22:12:00,11.2,1.7,30.57,WNW,289,0.0,1.0,65,0.00,,,0.00,Wunderground v.1.15,2013-01-25 03:12:00,
2013-01-24 22:18:00,11.0,1.5,30.57,WNW,289,0.0,1.0,65,0.00,,,0.00,Wunderground v.1.15,2013-01-25 03:18:00,
2013-01-24 22:24:00,11.0,1.2,30.57,WNW,289,0.0,0.0,64,0.00,,,0.00,Wunderground v.1.15,2013-01-25 03:24:00,
2013-01-24 22:30:00,11.0,1.2,30.56,WNW,289,0.0,0.0,64,0.00,,,0.00,Wunderground v.1.15,2013-01-25 03:30:00,
2013-01-24 22:35:00,11.0,1.2,30.57,WNW,289,0.0,0.0,64,0.00,,,0.00,Wunderground v.1.15,2013-01-25 03:35:00,
2013-01-24 22:41:00,10.9,1.1,30.57,WNW,289,0.0,0.0,64,0.00,,,0.00,Wunderground v.1.15,2013-01-25 03:41:00,
2013-01-24 22:47:00,10.8,1.0,30.57,WNW,289,0.0,0.0,64,0.00,,,0.00,Wunderground v.1.15,2013-01-25 03:47:00,
2013-01-24 22:53:00,10.5,1.0,30.57,WNW,289,0.0,0.0,65,0.00,,,0.00,Wunderground v.1.15,2013-01-25 03:53:00,
2013-01-24 22:59:00,10.4,1.0,30.57,WNW,289,0.0,0.0,65,0.00,,,0.00,Wunderground v.1.15,2013-01-25 03:59:00,
2013-01-24 23:05:00,10.4,1.0,30.57,WNW,289,0.0,1.0,65,0.00,,,0.00,Wunderground v.1.15,2013-01-25 04:05:00,
2013-01-24 23:11:00,10.2,1.1,30.57,WNW,289,0.0,0.0,66,0.00,,,0.00,Wunderground v.1.15,2013-01-25 04:11:00,
2013-01-24 23:17:00,10.0,0.9,30.57,WNW,289,0.0,0.0,66,0.00,,,0.00,Wunderground v.1.15,2013-01-25 04:17:00,
2013-01-24 23:22:00,10.0,0.6,30.56,WNW,289,0.0,0.0,65,0.00,,,0.00,Wunderground v.1.15,2013-01-25 04:22:00,
2013-01-24 23:28:00,10.1,0.7,30.56,WNW,289,0.0,0.0,65,0.00,,,0.00,Wunderground v.1.15,2013-01-25 04:28:00,
2013-01-24 23:34:00,10.1,0.7,30.57,WNW,289,0.0,0.0,65,0.00,,,0.00,Wunderground v.1.15,2013-01-25 04:34:00,
2013-01-24 23:40:00,10.1,1.0,30.57,WNW,289,0.0,0.0,66,0.00,,,0.00,Wunderground v.1.15,2013-01-25 04:40:00,
2013-01-24 23:46:00,10.0,0.6,30.57,WNW,289,0.0,0.0,65,0.00,,,0.00,Wunderground v.1.15,2013-01-25 04:46:00,
2013-01-24 23:52:00,10.1,0.7,30.58,WNW,289,0.0,0.0,65,0.00,,,0.00,Wunderground v.1.15,2013-01-25 04:52:00,
2013-01-24 23:58:00,10.3,0.5,30.57,WNW,289,0.0,0.0,64,0.00,,,0.00,Wunderground v.1.15,2013-01-25 04:58:00,